Hlavní strana
METAR-TAF:

METAR-TAF

Letiště :

Natal, Rio Grande do Norte, Brazílie

zeměpisná šířka: 05-55S, zeměpisná délka: 035-15W, výška: 52 m

Aktuální stav počasí

Zpráva byla vytvořena před 20 minutami, v 08:00 UTC
vítr z různých směrů 2 kt
Teplota 24°C
Vlhkost vzduchu 94%
Tlak 1011 hPa
Viditelnost 10 km a více
Skoro jasno ve výšce 2100 ft
Polojasno ve výšce 7000 ft

METAR: SBNT 210800Z VRB02KT 9999 FEW021 SCT070 24/23 Q1011

Čas: 05:20 (08:20 UTC)

Předpověď počasí

Zpráva byla vytvořena před 4 hodinami a 20 minutami, v 04:00 UTC
Předpověď platná od 21 v 06 UTC do 22 v 06 UTC
Jihojihovýchodní vítr 8 kt
Viditelnost: 8000 m
Oblačno až skoro zataženo ve výšce 2000 ft
Skoro jasno ve výšce 2500 ft, Vertikální cumulus.
Změna
od 21 v 14 UTC do 21 v 16 UTC
Východní vítr 8 kt
Změna
od 21 v 20 UTC do 21 v 22 UTC
Skoro jasno ve výšce 2500 ft, Vertikální cumulus.

TAF: SBNT 210400Z 2106/2206 15008KT 8000 BKN020 FEW025TCU TN25/2108Z TX29/2117Z BECMG 2114/2116 09008KT BECMG 2120/2122SCT018 FEW025TCU RMK PFN

Stav a předpovědi počasí z více než 4 000 letišť (zprávy METAR a TAF).

Červené a žluté tečky na mapě představují dostupné meteorologické stanice.

Když kurzor umístíte na tečku, zobrazí se název stanice.

Pak kliknutím zobrazíte stav a předpověď počasí.

Chcete-li změnit mapu, kliknutím na zelené tlačítko se znaménkem +mapu přiblížíte, kliknutím na zelené tlačítko se znaménkem – mapu oddálíte a kliknutím na zelené šipky přejdete na sousední mapy.


METAR-TAF: